sensor_id;sensor_type;location;lat;lon;timestamp;P1;durP1;ratioP1;P2;durP2;ratioP2
37777;SDS011;23615;51.506;7.678;2023-04-15T00:00:58;2.50;;;2.30;;
37777;SDS011;23615;51.506;7.678;2023-04-15T00:03:23;3.40;;;2.63;;
37777;SDS011;23615;51.506;7.678;2023-04-15T00:05:49;2.80;;;2.50;;
37777;SDS011;23615;51.506;7.678;2023-04-15T00:08:14;3.10;;;2.80;;
37777;SDS011;23615;51.506;7.678;2023-04-15T00:10:39;3.27;;;2.97;;
37777;SDS011;23615;51.506;7.678;2023-04-15T00:13:08;2.50;;;2.30;;
37777;SDS011;23615;51.506;7.678;2023-04-15T00:15:33;2.60;;;2.40;;
37777;SDS011;23615;51.506;7.678;2023-04-15T00:17:58;2.60;;;2.37;;
37777;SDS011;23615;51.506;7.678;2023-04-15T00:20:24;2.60;;;2.40;;
37777;SDS011;23615;51.506;7.678;2023-04-15T00:22:49;2.63;;;2.43;;
37777;SDS011;23615;51.506;7.678;2023-04-15T00:25:14;2.10;;;1.93;;
37777;SDS011;23615;51.506;7.678;2023-04-15T00:27:39;2.08;;;1.98;;
37777;SDS011;23615;51.506;7.678;2023-04-15T00:30:05;1.88;;;1.77;;
37777;SDS011;23615;51.506;7.678;2023-04-15T00:32:31;2.05;;;1.83;;
37777;SDS011;23615;51.506;7.678;2023-04-15T00:34:56;1.70;;;1.60;;
37777;SDS011;23615;51.506;7.678;2023-04-15T00:37:21;2.00;;;1.83;;
37777;SDS011;23615;51.506;7.678;2023-04-15T00:39:47;2.10;;;1.80;;
37777;SDS011;23615;51.506;7.678;2023-04-15T00:42:13;2.40;;;2.20;;
37777;SDS011;23615;51.506;7.678;2023-04-15T00:44:39;2.30;;;1.83;;
37777;SDS011;23615;51.506;7.678;2023-04-15T00:47:04;2.33;;;1.90;;
37777;SDS011;23615;51.506;7.678;2023-04-15T00:49:30;4.10;;;2.53;;
37777;SDS011;23615;51.506;7.678;2023-04-15T00:51:56;2.67;;;2.47;;
37777;SDS011;23615;51.506;7.678;2023-04-15T00:54:21;2.25;;;2.05;;
37777;SDS011;23615;51.506;7.678;2023-04-15T00:56:47;2.25;;;2.15;;
37777;SDS011;23615;51.506;7.678;2023-04-15T00:59:13;2.37;;;2.17;;
37777;SDS011;23615;51.506;7.678;2023-04-15T01:01:38;2.88;;;2.40;;
37777;SDS011;23615;51.506;7.678;2023-04-15T01:04:04;3.03;;;2.53;;
37777;SDS011;23615;51.506;7.678;2023-04-15T01:06:30;3.22;;;2.92;;
37777;SDS011;23615;51.506;7.678;2023-04-15T01:08:56;3.50;;;3.08;;
37777;SDS011;23615;51.506;7.678;2023-04-15T01:11:23;3.55;;;3.25;;
37777;SDS011;23615;51.506;7.678;2023-04-15T01:13:49;3.78;;;3.40;;
37777;SDS011;23615;51.506;7.678;2023-04-15T01:16:15;3.75;;;3.45;;
37777;SDS011;23615;51.506;7.678;2023-04-15T01:18:41;3.03;;;2.83;;
37777;SDS011;23615;51.506;7.678;2023-04-15T01:21:06;3.43;;;2.87;;
37777;SDS011;23615;51.506;7.678;2023-04-15T01:23:34;3.50;;;3.20;;
37777;SDS011;23615;51.506;7.678;2023-04-15T01:26:02;3.08;;;2.80;;
37777;SDS011;23615;51.506;7.678;2023-04-15T01:28:28;3.87;;;3.40;;
37777;SDS011;23615;51.506;7.678;2023-04-15T01:31:10;3.65;;;3.20;;
37777;SDS011;23615;51.506;7.678;2023-04-15T01:33:39;3.38;;;3.08;;
37777;SDS011;23615;51.506;7.678;2023-04-15T01:36:06;3.50;;;3.20;;
37777;SDS011;23615;51.506;7.678;2023-04-15T01:38:35;4.20;;;3.80;;
37777;SDS011;23615;51.506;7.678;2023-04-15T01:41:01;3.70;;;3.38;;
37777;SDS011;23615;51.506;7.678;2023-04-15T01:43:28;3.65;;;2.80;;
37777;SDS011;23615;51.506;7.678;2023-04-15T01:45:54;3.03;;;2.83;;
37777;SDS011;23615;51.506;7.678;2023-04-15T01:48:20;4.18;;;3.45;;
37777;SDS011;23615;51.506;7.678;2023-04-15T01:50:46;2.50;;;2.30;;
37777;SDS011;23615;51.506;7.678;2023-04-15T01:53:11;3.13;;;2.43;;
37777;SDS011;23615;51.506;7.678;2023-04-15T01:55:36;2.80;;;2.60;;
37777;SDS011;23615;51.506;7.678;2023-04-15T01:58:02;3.17;;;2.87;;
37777;SDS011;23615;51.506;7.678;2023-04-15T02:00:27;2.97;;;2.77;;
37777;SDS011;23615;51.506;7.678;2023-04-15T02:02:53;3.05;;;2.75;;
37777;SDS011;23615;51.506;7.678;2023-04-15T02:05:18;2.80;;;2.60;;
37777;SDS011;23615;51.506;7.678;2023-04-15T02:07:44;3.22;;;2.92;;
37777;SDS011;23615;51.506;7.678;2023-04-15T02:10:10;4.10;;;3.30;;
37777;SDS011;23615;51.506;7.678;2023-04-15T02:12:37;3.28;;;2.97;;
37777;SDS011;23615;51.506;7.678;2023-04-15T02:15:03;3.03;;;2.83;;
37777;SDS011;23615;51.506;7.678;2023-04-15T02:17:29;2.67;;;2.47;;
37777;SDS011;23615;51.506;7.678;2023-04-15T02:19:55;2.20;;;2.00;;
37777;SDS011;23615;51.506;7.678;2023-04-15T02:22:20;2.88;;;2.58;;
37777;SDS011;23615;51.506;7.678;2023-04-15T02:24:46;2.67;;;2.47;;
37777;SDS011;23615;51.506;7.678;2023-04-15T02:27:14;2.40;;;2.20;;
37777;SDS011;23615;51.506;7.678;2023-04-15T02:29:40;1.60;;;1.50;;
37777;SDS011;23615;51.506;7.678;2023-04-15T02:32:06;2.30;;;2.10;;
37777;SDS011;23615;51.506;7.678;2023-04-15T02:34:32;1.95;;;1.63;;
37777;SDS011;23615;51.506;7.678;2023-04-15T02:36:57;2.30;;;2.10;;
37777;SDS011;23615;51.506;7.678;2023-04-15T02:39:23;2.70;;;2.50;;
37777;SDS011;23615;51.506;7.678;2023-04-15T02:41:48;1.50;;;1.40;;
37777;SDS011;23615;51.506;7.678;2023-04-15T02:44:17;2.40;;;1.90;;
37777;SDS011;23615;51.506;7.678;2023-04-15T02:46:47;1.98;;;1.85;;
37777;SDS011;23615;51.506;7.678;2023-04-15T02:49:14;1.70;;;1.50;;
37777;SDS011;23615;51.506;7.678;2023-04-15T02:51:40;1.67;;;1.57;;
37777;SDS011;23615;51.506;7.678;2023-04-15T02:54:05;1.60;;;1.50;;
37777;SDS011;23615;51.506;7.678;2023-04-15T02:56:31;2.23;;;2.03;;
37777;SDS011;23615;51.506;7.678;2023-04-15T02:58:57;2.50;;;2.30;;
37777;SDS011;23615;51.506;7.678;2023-04-15T03:01:22;2.50;;;2.30;;
37777;SDS011;23615;51.506;7.678;2023-04-15T03:03:47;2.00;;;1.90;;
37777;SDS011;23615;51.506;7.678;2023-04-15T03:06:13;2.00;;;1.80;;
37777;SDS011;23615;51.506;7.678;2023-04-15T03:08:38;2.23;;;2.10;;
37777;SDS011;23615;51.506;7.678;2023-04-15T03:11:03;2.00;;;1.90;;
37777;SDS011;23615;51.506;7.678;2023-04-15T03:13:29;2.20;;;2.00;;
37777;SDS011;23615;51.506;7.678;2023-04-15T03:15:54;2.33;;;2.13;;
37777;SDS011;23615;51.506;7.678;2023-04-15T03:18:19;2.90;;;2.50;;
37777;SDS011;23615;51.506;7.678;2023-04-15T03:20:45;3.38;;;2.78;;
37777;SDS011;23615;51.506;7.678;2023-04-15T03:23:10;2.93;;;2.70;;
37777;SDS011;23615;51.506;7.678;2023-04-15T03:25:36;2.30;;;2.10;;
37777;SDS011;23615;51.506;7.678;2023-04-15T03:28:01;3.63;;;3.33;;
37777;SDS011;23615;51.506;7.678;2023-04-15T03:30:27;3.22;;;2.92;;
37777;SDS011;23615;51.506;7.678;2023-04-15T03:32:53;3.40;;;3.10;;
37777;SDS011;23615;51.506;7.678;2023-04-15T03:35:18;3.30;;;3.10;;
37777;SDS011;23615;51.506;7.678;2023-04-15T03:37:43;3.77;;;3.47;;
37777;SDS011;23615;51.506;7.678;2023-04-15T03:40:09;3.70;;;3.40;;
37777;SDS011;23615;51.506;7.678;2023-04-15T03:42:34;6.03;;;4.20;;
37777;SDS011;23615;51.506;7.678;2023-04-15T03:45:00;4.70;;;4.22;;
37777;SDS011;23615;51.506;7.678;2023-04-15T03:47:25;4.47;;;3.97;;
37777;SDS011;23615;51.506;7.678;2023-04-15T03:49:50;5.05;;;4.28;;
37777;SDS011;23615;51.506;7.678;2023-04-15T03:52:15;4.28;;;3.88;;
37777;SDS011;23615;51.506;7.678;2023-04-15T03:54:41;5.43;;;4.30;;
37777;SDS011;23615;51.506;7.678;2023-04-15T03:57:06;4.17;;;3.77;;
37777;SDS011;23615;51.506;7.678;2023-04-15T03:59:31;4.00;;;3.50;;
37777;SDS011;23615;51.506;7.678;2023-04-15T04:01:56;4.40;;;3.80;;
37777;SDS011;23615;51.506;7.678;2023-04-15T04:04:22;4.70;;;3.43;;
37777;SDS011;23615;51.506;7.678;2023-04-15T04:06:47;5.33;;;4.10;;
37777;SDS011;23615;51.506;7.678;2023-04-15T04:09:12;4.30;;;3.90;;
37777;SDS011;23615;51.506;7.678;2023-04-15T04:11:38;3.73;;;3.43;;
37777;SDS011;23615;51.506;7.678;2023-04-15T04:14:03;3.63;;;3.33;;
37777;SDS011;23615;51.506;7.678;2023-04-15T04:16:28;3.80;;;3.40;;
37777;SDS011;23615;51.506;7.678;2023-04-15T04:18:53;4.47;;;3.37;;
37777;SDS011;23615;51.506;7.678;2023-04-15T04:21:19;2.87;;;2.67;;
37777;SDS011;23615;51.506;7.678;2023-04-15T04:23:45;3.50;;;3.20;;
37777;SDS011;23615;51.506;7.678;2023-04-15T04:26:10;3.63;;;3.30;;
37777;SDS011;23615;51.506;7.678;2023-04-15T04:28:36;3.67;;;3.37;;
37777;SDS011;23615;51.506;7.678;2023-04-15T04:31:03;3.40;;;3.10;;
37777;SDS011;23615;51.506;7.678;2023-04-15T04:33:30;4.75;;;4.35;;
37777;SDS011;23615;51.506;7.678;2023-04-15T04:35:55;3.90;;;3.60;;
37777;SDS011;23615;51.506;7.678;2023-04-15T04:38:21;4.70;;;4.27;;
37777;SDS011;23615;51.506;7.678;2023-04-15T04:40:46;5.03;;;4.60;;
37777;SDS011;23615;51.506;7.678;2023-04-15T04:43:11;5.97;;;5.13;;
37777;SDS011;23615;51.506;7.678;2023-04-15T04:45:37;6.50;;;5.90;;
37777;SDS011;23615;51.506;7.678;2023-04-15T04:48:02;4.63;;;4.23;;
37777;SDS011;23615;51.506;7.678;2023-04-15T04:50:30;3.40;;;3.10;;
37777;SDS011;23615;51.506;7.678;2023-04-15T04:52:56;4.33;;;3.93;;
37777;SDS011;23615;51.506;7.678;2023-04-15T04:55:21;7.70;;;5.30;;
37777;SDS011;23615;51.506;7.678;2023-04-15T04:57:46;5.30;;;4.60;;
37777;SDS011;23615;51.506;7.678;2023-04-15T05:00:12;5.00;;;4.53;;
37777;SDS011;23615;51.506;7.678;2023-04-15T05:02:38;4.75;;;4.25;;
37777;SDS011;23615;51.506;7.678;2023-04-15T05:05:03;5.18;;;4.53;;
37777;SDS011;23615;51.506;7.678;2023-04-15T05:07:29;5.33;;;4.00;;
37777;SDS011;23615;51.506;7.678;2023-04-15T05:09:54;4.23;;;3.83;;
37777;SDS011;23615;51.506;7.678;2023-04-15T05:12:19;6.73;;;5.90;;
37777;SDS011;23615;51.506;7.678;2023-04-15T05:14:45;5.40;;;4.90;;
37777;SDS011;23615;51.506;7.678;2023-04-15T05:17:10;4.63;;;4.10;;
37777;SDS011;23615;51.506;7.678;2023-04-15T05:19:36;5.13;;;4.18;;
37777;SDS011;23615;51.506;7.678;2023-04-15T05:22:01;4.00;;;3.60;;
37777;SDS011;23615;51.506;7.678;2023-04-15T05:24:27;4.30;;;3.90;;
37777;SDS011;23615;51.506;7.678;2023-04-15T05:26:52;4.30;;;3.90;;
37777;SDS011;23615;51.506;7.678;2023-04-15T05:29:18;4.07;;;3.67;;
37777;SDS011;23615;51.506;7.678;2023-04-15T05:31:43;5.07;;;4.30;;
37777;SDS011;23615;51.506;7.678;2023-04-15T05:34:08;4.60;;;4.20;;
37777;SDS011;23615;51.506;7.678;2023-04-15T05:36:35;4.72;;;4.28;;
37777;SDS011;23615;51.506;7.678;2023-04-15T05:39:01;4.37;;;3.97;;
37777;SDS011;23615;51.506;7.678;2023-04-15T05:41:26;5.00;;;4.50;;
37777;SDS011;23615;51.506;7.678;2023-04-15T05:43:51;6.07;;;5.47;;
37777;SDS011;23615;51.506;7.678;2023-04-15T05:46:17;6.47;;;5.70;;
37777;SDS011;23615;51.506;7.678;2023-04-15T05:48:42;6.53;;;5.73;;
37777;SDS011;23615;51.506;7.678;2023-04-15T05:51:07;6.13;;;5.57;;
37777;SDS011;23615;51.506;7.678;2023-04-15T05:53:33;5.93;;;5.33;;
37777;SDS011;23615;51.506;7.678;2023-04-15T05:55:58;5.50;;;5.00;;
37777;SDS011;23615;51.506;7.678;2023-04-15T05:58:24;5.40;;;4.90;;
37777;SDS011;23615;51.506;7.678;2023-04-15T06:00:49;5.47;;;4.87;;
37777;SDS011;23615;51.506;7.678;2023-04-15T06:03:14;5.20;;;4.70;;
37777;SDS011;23615;51.506;7.678;2023-04-15T06:05:40;4.80;;;3.95;;
37777;SDS011;23615;51.506;7.678;2023-04-15T06:08:06;5.75;;;5.15;;
37777;SDS011;23615;51.506;7.678;2023-04-15T06:10:32;7.72;;;6.22;;
37777;SDS011;23615;51.506;7.678;2023-04-15T06:13:00;9.48;;;8.48;;
37777;SDS011;23615;51.506;7.678;2023-04-15T06:15:27;8.38;;;7.55;;
37777;SDS011;23615;51.506;7.678;2023-04-15T06:17:53;6.70;;;5.90;;
37777;SDS011;23615;51.506;7.678;2023-04-15T06:20:18;6.13;;;5.53;;
37777;SDS011;23615;51.506;7.678;2023-04-15T06:22:43;5.33;;;4.83;;
37777;SDS011;23615;51.506;7.678;2023-04-15T06:25:08;6.23;;;5.63;;
37777;SDS011;23615;51.506;7.678;2023-04-15T06:27:34;6.00;;;5.50;;
37777;SDS011;23615;51.506;7.678;2023-04-15T06:30:00;5.90;;;5.30;;
37777;SDS011;23615;51.506;7.678;2023-04-15T06:32:25;5.60;;;5.03;;
37777;SDS011;23615;51.506;7.678;2023-04-15T06:34:50;6.93;;;6.23;;
37777;SDS011;23615;51.506;7.678;2023-04-15T06:37:15;6.53;;;5.93;;
37777;SDS011;23615;51.506;7.678;2023-04-15T06:39:41;8.13;;;7.10;;
37777;SDS011;23615;51.506;7.678;2023-04-15T06:42:07;6.97;;;6.30;;
37777;SDS011;23615;51.506;7.678;2023-04-15T06:44:33;6.47;;;5.90;;
37777;SDS011;23615;51.506;7.678;2023-04-15T06:46:58;5.88;;;5.28;;
37777;SDS011;23615;51.506;7.678;2023-04-15T06:49:23;6.43;;;5.82;;
37777;SDS011;23615;51.506;7.678;2023-04-15T06:51:50;6.22;;;5.63;;
37777;SDS011;23615;51.506;7.678;2023-04-15T06:54:15;6.63;;;5.53;;
37777;SDS011;23615;51.506;7.678;2023-04-15T06:56:41;5.88;;;5.38;;
37777;SDS011;23615;51.506;7.678;2023-04-15T06:59:06;10.03;;;8.07;;
37777;SDS011;23615;51.506;7.678;2023-04-15T07:01:32;9.85;;;8.68;;
37777;SDS011;23615;51.506;7.678;2023-04-15T07:03:57;10.13;;;9.00;;
37777;SDS011;23615;51.506;7.678;2023-04-15T07:06:23;9.20;;;8.27;;
37777;SDS011;23615;51.506;7.678;2023-04-15T07:08:48;8.15;;;7.35;;
37777;SDS011;23615;51.506;7.678;2023-04-15T07:11:14;10.70;;;9.60;;
37777;SDS011;23615;51.506;7.678;2023-04-15T07:13:39;11.07;;;9.50;;
37777;SDS011;23615;51.506;7.678;2023-04-15T07:16:05;10.87;;;9.77;;
37777;SDS011;23615;51.506;7.678;2023-04-15T07:18:30;11.10;;;10.00;;
37777;SDS011;23615;51.506;7.678;2023-04-15T07:20:55;14.37;;;12.13;;
37777;SDS011;23615;51.506;7.678;2023-04-15T07:23:21;11.43;;;10.23;;
37777;SDS011;23615;51.506;7.678;2023-04-15T07:25:47;12.68;;;11.38;;
37777;SDS011;23615;51.506;7.678;2023-04-15T07:28:12;10.60;;;9.50;;
37777;SDS011;23615;51.506;7.678;2023-04-15T07:30:38;9.77;;;8.77;;
37777;SDS011;23615;51.506;7.678;2023-04-15T07:33:03;11.53;;;10.07;;
37777;SDS011;23615;51.506;7.678;2023-04-15T07:35:28;10.40;;;9.17;;
37777;SDS011;23615;51.506;7.678;2023-04-15T07:37:54;10.03;;;8.87;;
37777;SDS011;23615;51.506;7.678;2023-04-15T07:40:19;10.43;;;9.23;;
37777;SDS011;23615;51.506;7.678;2023-04-15T07:42:44;9.97;;;8.63;;
37777;SDS011;23615;51.506;7.678;2023-04-15T07:45:10;9.80;;;8.80;;
37777;SDS011;23615;51.506;7.678;2023-04-15T07:47:36;10.67;;;9.27;;
37777;SDS011;23615;51.506;7.678;2023-04-15T07:50:02;9.40;;;8.37;;
37777;SDS011;23615;51.506;7.678;2023-04-15T07:52:27;8.10;;;7.30;;
37777;SDS011;23615;51.506;7.678;2023-04-15T07:54:52;11.33;;;8.77;;
37777;SDS011;23615;51.506;7.678;2023-04-15T07:57:18;9.53;;;8.13;;
37777;SDS011;23615;51.506;7.678;2023-04-15T07:59:43;10.47;;;9.30;;
37777;SDS011;23615;51.506;7.678;2023-04-15T08:02:09;10.37;;;8.47;;
37777;SDS011;23615;51.506;7.678;2023-04-15T08:04:35;10.53;;;9.30;;
37777;SDS011;23615;51.506;7.678;2023-04-15T08:07:01;11.07;;;9.27;;
37777;SDS011;23615;51.506;7.678;2023-04-15T08:09:27;10.40;;;8.73;;
37777;SDS011;23615;51.506;7.678;2023-04-15T08:11:52;10.43;;;9.10;;
37777;SDS011;23615;51.506;7.678;2023-04-15T08:14:17;10.63;;;9.47;;
37777;SDS011;23615;51.506;7.678;2023-04-15T08:16:43;8.87;;;7.53;;
37777;SDS011;23615;51.506;7.678;2023-04-15T08:19:08;10.73;;;8.53;;
37777;SDS011;23615;51.506;7.678;2023-04-15T08:21:33;8.63;;;7.73;;
37777;SDS011;23615;51.506;7.678;2023-04-15T08:23:58;10.40;;;8.33;;
37777;SDS011;23615;51.506;7.678;2023-04-15T08:26:24;7.30;;;6.20;;
37777;SDS011;23615;51.506;7.678;2023-04-15T08:28:50;7.63;;;6.50;;
37777;SDS011;23615;51.506;7.678;2023-04-15T08:31:16;8.55;;;7.18;;
37777;SDS011;23615;51.506;7.678;2023-04-15T08:33:42;8.75;;;6.95;;
37777;SDS011;23615;51.506;7.678;2023-04-15T08:36:08;8.43;;;7.40;;
37777;SDS011;23615;51.506;7.678;2023-04-15T08:38:33;7.93;;;6.83;;
37777;SDS011;23615;51.506;7.678;2023-04-15T08:40:59;8.32;;;7.03;;
37777;SDS011;23615;51.506;7.678;2023-04-15T08:43:45;8.50;;;7.17;;
37777;SDS011;23615;51.506;7.678;2023-04-15T08:46:15;9.20;;;8.00;;
37777;SDS011;23615;51.506;7.678;2023-04-15T08:48:41;8.77;;;7.40;;
37777;SDS011;23615;51.506;7.678;2023-04-15T08:51:07;7.93;;;7.13;;
37777;SDS011;23615;51.506;7.678;2023-04-15T08:53:33;9.30;;;7.80;;
37777;SDS011;23615;51.506;7.678;2023-04-15T08:55:59;9.43;;;7.85;;
37777;SDS011;23615;51.506;7.678;2023-04-15T08:58:29;9.13;;;8.23;;
37777;SDS011;23615;51.506;7.678;2023-04-15T09:00:55;9.68;;;8.68;;
37777;SDS011;23615;51.506;7.678;2023-04-15T09:03:21;10.13;;;8.05;;
37777;SDS011;23615;51.506;7.678;2023-04-15T09:05:47;11.00;;;9.15;;
37777;SDS011;23615;51.506;7.678;2023-04-15T09:08:14;10.05;;;8.68;;
37777;SDS011;23615;51.506;7.678;2023-04-15T09:10:40;9.53;;;8.53;;
37777;SDS011;23615;51.506;7.678;2023-04-15T09:13:05;12.13;;;10.10;;
37777;SDS011;23615;51.506;7.678;2023-04-15T09:15:30;10.33;;;9.23;;
37777;SDS011;23615;51.506;7.678;2023-04-15T09:17:57;9.55;;;8.63;;
37777;SDS011;23615;51.506;7.678;2023-04-15T09:20:22;10.57;;;9.50;;
37777;SDS011;23615;51.506;7.678;2023-04-15T09:22:48;11.03;;;9.80;;
37777;SDS011;23615;51.506;7.678;2023-04-15T09:27:49;10.20;;;9.20;;
37777;SDS011;23615;51.506;7.678;2023-04-15T09:30:18;10.90;;;9.65;;
37777;SDS011;23615;51.506;7.678;2023-04-15T09:32:50;10.50;;;9.35;;
37777;SDS011;23615;51.506;7.678;2023-04-15T09:35:17;9.00;;;8.10;;
37777;SDS011;23615;51.506;7.678;2023-04-15T09:37:44;10.18;;;8.90;;
37777;SDS011;23615;51.506;7.678;2023-04-15T09:40:09;9.93;;;8.90;;
37777;SDS011;23615;51.506;7.678;2023-04-15T09:42:35;9.02;;;8.13;;
37777;SDS011;23615;51.506;7.678;2023-04-15T09:45:20;9.97;;;8.97;;
37777;SDS011;23615;51.506;7.678;2023-04-15T09:47:45;10.45;;;9.38;;
37777;SDS011;23615;51.506;7.678;2023-04-15T09:50:11;10.50;;;8.80;;
37777;SDS011;23615;51.506;7.678;2023-04-15T09:52:40;10.17;;;9.07;;
37777;SDS011;23615;51.506;7.678;2023-04-15T09:55:07;8.68;;;7.80;;
37777;SDS011;23615;51.506;7.678;2023-04-15T09:57:33;8.30;;;7.10;;
37777;SDS011;23615;51.506;7.678;2023-04-15T10:00:00;8.70;;;7.90;;
37777;SDS011;23615;51.506;7.678;2023-04-15T10:02:25;7.47;;;6.67;;
37777;SDS011;23615;51.506;7.678;2023-04-15T10:04:51;8.32;;;6.70;;
37777;SDS011;23615;51.506;7.678;2023-04-15T10:07:17;7.18;;;6.47;;
37777;SDS011;23615;51.506;7.678;2023-04-15T10:09:47;6.90;;;5.75;;
37777;SDS011;23615;51.506;7.678;2023-04-15T10:12:13;6.47;;;5.75;;
37777;SDS011;23615;51.506;7.678;2023-04-15T10:14:43;7.30;;;6.23;;
37777;SDS011;23615;51.506;7.678;2023-04-15T10:17:12;7.35;;;5.93;;
37777;SDS011;23615;51.506;7.678;2023-04-15T10:19:42;7.57;;;6.00;;
37777;SDS011;23615;51.506;7.678;2023-04-15T10:22:07;6.40;;;5.80;;
37777;SDS011;23615;51.506;7.678;2023-04-15T10:24:33;7.10;;;6.03;;
37777;SDS011;23615;51.506;7.678;2023-04-15T10:26:59;6.38;;;5.75;;
37777;SDS011;23615;51.506;7.678;2023-04-15T10:29:24;8.10;;;6.30;;
37777;SDS011;23615;51.506;7.678;2023-04-15T10:31:53;7.45;;;6.20;;
37777;SDS011;23615;51.506;7.678;2023-04-15T10:34:20;6.78;;;6.05;;
37777;SDS011;23615;51.506;7.678;2023-04-15T10:36:47;7.03;;;6.30;;
37777;SDS011;23615;51.506;7.678;2023-04-15T10:42:13;7.80;;;6.15;;
37777;SDS011;23615;51.506;7.678;2023-04-15T10:44:44;6.70;;;5.88;;
37777;SDS011;23615;51.506;7.678;2023-04-15T10:47:14;8.02;;;6.45;;
37777;SDS011;23615;51.506;7.678;2023-04-15T10:50:00;6.93;;;6.23;;
37777;SDS011;23615;51.506;7.678;2023-04-15T10:52:26;7.45;;;6.47;;
37777;SDS011;23615;51.506;7.678;2023-04-15T10:57:39;7.15;;;6.00;;
37777;SDS011;23615;51.506;7.678;2023-04-15T11:00:12;9.27;;;6.35;;
37777;SDS011;23615;51.506;7.678;2023-04-15T11:02:40;7.40;;;6.35;;
37777;SDS011;23615;51.506;7.678;2023-04-15T11:05:05;7.40;;;6.18;;
37777;SDS011;23615;51.506;7.678;2023-04-15T11:12:42;9.10;;;6.63;;
37777;SDS011;23615;51.506;7.678;2023-04-15T11:15:27;7.63;;;6.43;;
37777;SDS011;23615;51.506;7.678;2023-04-15T11:17:55;6.43;;;5.72;;
37777;SDS011;23615;51.506;7.678;2023-04-15T11:20:21;7.73;;;6.47;;
37777;SDS011;23615;51.506;7.678;2023-04-15T11:22:50;6.50;;;5.50;;
37777;SDS011;23615;51.506;7.678;2023-04-15T11:25:23;8.32;;;6.05;;
37777;SDS011;23615;51.506;7.678;2023-04-15T11:27:53;7.40;;;6.10;;
37777;SDS011;23615;51.506;7.678;2023-04-15T11:30:20;7.25;;;6.40;;
37777;SDS011;23615;51.506;7.678;2023-04-15T11:32:53;6.28;;;5.68;;
37777;SDS011;23615;51.506;7.678;2023-04-15T11:35:19;7.40;;;6.10;;
37777;SDS011;23615;51.506;7.678;2023-04-15T11:37:46;6.50;;;5.80;;
37777;SDS011;23615;51.506;7.678;2023-04-15T11:40:13;6.15;;;5.55;;
37777;SDS011;23615;51.506;7.678;2023-04-15T11:42:41;7.40;;;5.85;;
37777;SDS011;23615;51.506;7.678;2023-04-15T11:45:07;6.35;;;5.32;;
37777;SDS011;23615;51.506;7.678;2023-04-15T11:47:34;6.35;;;5.75;;
37777;SDS011;23615;51.506;7.678;2023-04-15T11:50:19;6.15;;;5.55;;
37777;SDS011;23615;51.506;7.678;2023-04-15T11:52:53;6.97;;;5.38;;
37777;SDS011;23615;51.506;7.678;2023-04-15T11:55:19;6.50;;;5.20;;
37777;SDS011;23615;51.506;7.678;2023-04-15T11:57:45;6.07;;;5.03;;
37777;SDS011;23615;51.506;7.678;2023-04-15T12:00:10;6.07;;;5.20;;
37777;SDS011;23615;51.506;7.678;2023-04-15T12:02:36;5.53;;;4.90;;
37777;SDS011;23615;51.506;7.678;2023-04-15T12:05:04;6.37;;;4.90;;
37777;SDS011;23615;51.506;7.678;2023-04-15T12:07:30;5.35;;;4.60;;
37777;SDS011;23615;51.506;7.678;2023-04-15T12:09:56;6.47;;;5.30;;
37777;SDS011;23615;51.506;7.678;2023-04-15T12:12:25;5.60;;;4.88;;
37777;SDS011;23615;51.506;7.678;2023-04-15T12:14:55;6.72;;;5.20;;
37777;SDS011;23615;51.506;7.678;2023-04-15T12:17:21;5.95;;;5.18;;
37777;SDS011;23615;51.506;7.678;2023-04-15T12:19:47;5.85;;;5.32;;
37777;SDS011;23615;51.506;7.678;2023-04-15T12:22:14;5.57;;;4.90;;
37777;SDS011;23615;51.506;7.678;2023-04-15T12:24:41;5.50;;;4.70;;
37777;SDS011;23615;51.506;7.678;2023-04-15T12:27:11;7.15;;;5.65;;
37777;SDS011;23615;51.506;7.678;2023-04-15T12:29:38;6.33;;;5.20;;
37777;SDS011;23615;51.506;7.678;2023-04-15T12:32:05;5.80;;;4.88;;
37777;SDS011;23615;51.506;7.678;2023-04-15T12:34:32;5.72;;;5.13;;
37777;SDS011;23615;51.506;7.678;2023-04-15T12:37:02;5.32;;;4.82;;
37777;SDS011;23615;51.506;7.678;2023-04-15T12:39:30;5.72;;;5.07;;
37777;SDS011;23615;51.506;7.678;2023-04-15T12:41:56;6.55;;;4.63;;
37777;SDS011;23615;51.506;7.678;2023-04-15T12:44:23;6.05;;;4.85;;
37777;SDS011;23615;51.506;7.678;2023-04-15T12:46:48;6.83;;;4.60;;
37777;SDS011;23615;51.506;7.678;2023-04-15T12:49:14;5.60;;;4.60;;
37777;SDS011;23615;51.506;7.678;2023-04-15T12:51:40;4.25;;;3.85;;
37777;SDS011;23615;51.506;7.678;2023-04-15T12:54:06;6.20;;;5.40;;
37777;SDS011;23615;51.506;7.678;2023-04-15T12:56:31;6.37;;;4.90;;
37777;SDS011;23615;51.506;7.678;2023-04-15T12:58:56;5.50;;;4.47;;
37777;SDS011;23615;51.506;7.678;2023-04-15T13:01:22;4.50;;;4.10;;
37777;SDS011;23615;51.506;7.678;2023-04-15T13:03:47;4.97;;;4.43;;
37777;SDS011;23615;51.506;7.678;2023-04-15T13:06:14;6.65;;;4.03;;
37777;SDS011;23615;51.506;7.678;2023-04-15T13:08:40;7.03;;;5.50;;
37777;SDS011;23615;51.506;7.678;2023-04-15T13:11:05;6.07;;;4.47;;
37777;SDS011;23615;51.506;7.678;2023-04-15T13:13:31;5.53;;;4.97;;
37777;SDS011;23615;51.506;7.678;2023-04-15T13:15:56;7.40;;;5.53;;
37777;SDS011;23615;51.506;7.678;2023-04-15T13:18:22;7.10;;;5.50;;
37777;SDS011;23615;51.506;7.678;2023-04-15T13:20:47;5.97;;;5.20;;
37777;SDS011;23615;51.506;7.678;2023-04-15T13:23:13;6.37;;;5.73;;
37777;SDS011;23615;51.506;7.678;2023-04-15T13:25:39;6.15;;;5.55;;
37777;SDS011;23615;51.506;7.678;2023-04-15T13:28:05;6.43;;;5.83;;
37777;SDS011;23615;51.506;7.678;2023-04-15T13:30:30;6.20;;;5.67;;
37777;SDS011;23615;51.506;7.678;2023-04-15T13:32:55;7.97;;;5.90;;
37777;SDS011;23615;51.506;7.678;2023-04-15T13:35:21;7.07;;;5.80;;
37777;SDS011;23615;51.506;7.678;2023-04-15T13:37:46;5.63;;;5.13;;
37777;SDS011;23615;51.506;7.678;2023-04-15T13:40:11;5.67;;;5.17;;
37777;SDS011;23615;51.506;7.678;2023-04-15T13:42:37;5.60;;;4.80;;
37777;SDS011;23615;51.506;7.678;2023-04-15T13:45:02;7.27;;;5.10;;
37777;SDS011;23615;51.506;7.678;2023-04-15T13:47:27;5.10;;;4.55;;
37777;SDS011;23615;51.506;7.678;2023-04-15T13:49:53;5.33;;;4.83;;
37777;SDS011;23615;51.506;7.678;2023-04-15T13:52:20;4.60;;;4.20;;
37777;SDS011;23615;51.506;7.678;2023-04-15T13:54:46;5.17;;;4.67;;
37777;SDS011;23615;51.506;7.678;2023-04-15T13:57:11;5.53;;;5.00;;
37777;SDS011;23615;51.506;7.678;2023-04-15T13:59:37;5.67;;;5.00;;
37777;SDS011;23615;51.506;7.678;2023-04-15T14:02:02;4.20;;;3.80;;
37777;SDS011;23615;51.506;7.678;2023-04-15T14:04:27;5.03;;;4.33;;
37777;SDS011;23615;51.506;7.678;2023-04-15T14:06:52;4.27;;;3.87;;
37777;SDS011;23615;51.506;7.678;2023-04-15T14:09:18;5.27;;;4.77;;
37777;SDS011;23615;51.506;7.678;2023-04-15T14:11:43;4.13;;;3.73;;
37777;SDS011;23615;51.506;7.678;2023-04-15T14:14:08;5.77;;;4.60;;
37777;SDS011;23615;51.506;7.678;2023-04-15T14:16:34;3.60;;;3.30;;
37777;SDS011;23615;51.506;7.678;2023-04-15T14:19:00;3.60;;;3.30;;
37777;SDS011;23615;51.506;7.678;2023-04-15T14:21:26;4.13;;;3.20;;
37777;SDS011;23615;51.506;7.678;2023-04-15T14:23:56;3.88;;;3.10;;
37777;SDS011;23615;51.506;7.678;2023-04-15T14:26:21;3.47;;;3.17;;
37777;SDS011;23615;51.506;7.678;2023-04-15T14:28:46;3.30;;;3.00;;
37777;SDS011;23615;51.506;7.678;2023-04-15T14:31:12;3.10;;;2.80;;
37777;SDS011;23615;51.506;7.678;2023-04-15T14:33:38;2.60;;;2.40;;
37777;SDS011;23615;51.506;7.678;2023-04-15T14:36:03;3.30;;;2.40;;
37777;SDS011;23615;51.506;7.678;2023-04-15T14:38:28;3.17;;;2.37;;
37777;SDS011;23615;51.506;7.678;2023-04-15T14:40:54;2.70;;;2.37;;
37777;SDS011;23615;51.506;7.678;2023-04-15T14:43:19;2.70;;;2.50;;
37777;SDS011;23615;51.506;7.678;2023-04-15T14:45:45;2.35;;;2.15;;
37777;SDS011;23615;51.506;7.678;2023-04-15T14:48:10;3.27;;;2.50;;
37777;SDS011;23615;51.506;7.678;2023-04-15T14:50:36;4.15;;;2.70;;
37777;SDS011;23615;51.506;7.678;2023-04-15T14:53:02;4.17;;;2.60;;